createdAt,value
2018-04-12T00:00:18.874Z,0.00
2018-04-12T00:01:18.800Z,0.00
2018-04-12T00:02:18.720Z,0.00
2018-04-12T00:03:18.678Z,0.00
2018-04-12T00:04:18.562Z,0.00
2018-04-12T00:05:18.486Z,0.00
2018-04-12T00:06:18.407Z,0.00
2018-04-12T00:07:18.330Z,0.00
2018-04-12T00:08:18.292Z,0.00
2018-04-12T00:09:18.170Z,0.00
2018-04-12T00:10:18.094Z,0.00
2018-04-12T00:11:18.055Z,0.00
2018-04-12T00:12:17.936Z,0.00
2018-04-12T00:13:17.863Z,0.00
2018-04-12T00:14:17.781Z,0.00
2018-04-12T00:15:17.703Z,0.00
2018-04-12T00:16:17.628Z,0.00
2018-04-12T00:17:17.547Z,0.00
2018-04-12T00:18:17.465Z,0.00
2018-04-12T00:19:17.390Z,0.00
2018-04-12T00:20:17.309Z,0.00
2018-04-12T00:21:17.232Z,0.00
2018-04-12T00:22:17.153Z,0.00
2018-04-12T00:23:17.079Z,0.00
2018-04-12T00:24:16.995Z,0.00
2018-04-12T00:25:16.918Z,0.00
2018-04-12T00:26:16.840Z,0.00
2018-04-12T00:27:16.760Z,0.00
2018-04-12T00:28:16.682Z,0.00
2018-04-12T00:29:16.605Z,0.00
2018-04-12T00:30:16.543Z,0.00
2018-04-12T00:31:16.446Z,0.00
2018-04-12T00:32:16.408Z,0.00
2018-04-12T00:33:16.289Z,0.00
2018-04-12T00:34:16.209Z,0.00
2018-04-12T00:35:16.134Z,0.00
2018-04-12T00:36:16.051Z,0.00
2018-04-12T00:37:15.983Z,0.00
2018-04-12T00:38:15.936Z,0.00
2018-04-12T00:39:15.817Z,0.00
2018-04-12T00:40:15.744Z,0.00
2018-04-12T00:41:15.661Z,0.00
2018-04-12T00:42:15.590Z,0.00
2018-04-12T00:43:15.511Z,0.00
2018-04-12T00:44:15.426Z,0.00
2018-04-12T00:45:15.345Z,0.00
2018-04-12T00:46:15.267Z,0.00
2018-04-12T00:47:15.190Z,0.00
2018-04-12T00:48:15.173Z,0.00
2018-04-12T00:49:15.048Z,0.00
2018-04-12T00:50:14.953Z,0.00
2018-04-12T00:51:14.876Z,0.00
2018-04-12T00:52:14.795Z,0.00
2018-04-12T00:53:14.718Z,0.00
2018-04-12T00:54:14.639Z,0.00
2018-04-12T00:55:14.566Z,0.00
2018-04-12T00:56:14.481Z,0.00
2018-04-12T00:57:14.401Z,0.00
2018-04-12T00:58:14.450Z,0.00
2018-04-12T00:59:14.242Z,0.00
2018-04-12T01:00:14.166Z,0.00
2018-04-12T01:01:14.090Z,0.00
2018-04-12T01:02:14.010Z,0.00
2018-04-12T01:03:13.932Z,0.00
2018-04-12T01:04:13.851Z,0.00
2018-04-12T01:05:13.778Z,0.00
2018-04-12T01:06:13.695Z,0.00
2018-04-12T01:07:13.623Z,0.00
2018-04-12T01:08:13.556Z,0.00
2018-04-12T01:09:13.458Z,0.00
2018-04-12T01:10:13.380Z,0.00
2018-04-12T01:11:13.301Z,0.00
2018-04-12T01:12:13.215Z,0.00
2018-04-12T01:13:13.146Z,0.00
2018-04-12T01:14:13.079Z,0.00
2018-04-12T01:15:12.985Z,0.00
2018-04-12T01:16:12.906Z,0.00
2018-04-12T01:17:12.829Z,0.00
2018-04-12T01:18:12.750Z,0.00
2018-04-12T01:19:12.669Z,0.00
2018-04-12T01:20:12.591Z,0.00
2018-04-12T01:21:12.511Z,0.00
2018-04-12T01:22:12.433Z,0.00
2018-04-12T01:23:12.358Z,0.00
2018-04-12T01:24:12.275Z,0.00
2018-04-12T01:25:12.214Z,0.00
2018-04-12T01:26:12.115Z,0.00
2018-04-12T01:27:12.036Z,0.00
2018-04-12T01:28:11.979Z,0.00
2018-04-12T01:29:11.938Z,0.00
2018-04-12T01:30:11.799Z,0.00
2018-04-12T01:31:11.720Z,0.00
2018-04-12T01:32:11.646Z,0.00
2018-04-12T01:33:11.562Z,0.00
2018-04-12T01:34:11.492Z,0.00
2018-04-12T01:35:11.413Z,0.00
2018-04-12T01:36:11.325Z,0.00
2018-04-12T01:37:11.247Z,0.00
2018-04-12T01:38:11.167Z,0.00
2018-04-12T01:39:11.086Z,0.00
2018-04-12T01:40:11.008Z,0.00
2018-04-12T01:41:10.937Z,0.00
2018-04-12T01:42:10.851Z,0.00
2018-04-12T01:43:10.771Z,0.00
2018-04-12T01:44:10.691Z,0.00
2018-04-12T01:45:10.630Z,0.00
2018-04-12T01:46:10.533Z,0.00
2018-04-12T01:47:10.453Z,0.00
2018-04-12T01:48:10.371Z,0.00
2018-04-12T01:49:10.295Z,0.00
2018-04-12T01:50:10.219Z,0.00
2018-04-12T01:51:10.135Z,0.00
2018-04-12T01:52:10.056Z,0.00
2018-04-12T01:53:09.981Z,0.00
2018-04-12T01:54:09.896Z,0.00
2018-04-12T01:55:09.824Z,0.00
2018-04-12T01:56:09.768Z,0.00
2018-04-12T01:57:09.665Z,0.00
2018-04-12T01:58:09.583Z,0.00
2018-04-12T01:59:09.502Z,0.00
2018-04-12T02:00:09.441Z,0.00
2018-04-12T02:01:09.344Z,0.00
2018-04-12T02:02:09.267Z,0.00
2018-04-12T02:03:09.196Z,0.00
2018-04-12T02:04:09.102Z,0.00
2018-04-12T02:05:09.055Z,0.00
2018-04-12T02:06:08.951Z,0.00
2018-04-12T02:07:08.948Z,0.00
2018-04-12T02:08:08.831Z,0.00
2018-04-12T02:09:08.711Z,0.00
2018-04-12T02:10:08.644Z,0.00
2018-04-12T02:11:08.550Z,0.00
2018-04-12T02:12:08.474Z,0.00
2018-04-12T02:13:08.393Z,0.00
2018-04-12T02:14:08.313Z,0.00
2018-04-12T02:15:08.235Z,0.00
2018-04-12T02:16:08.155Z,0.00
2018-04-12T02:17:08.090Z,0.00
2018-04-12T02:18:08.001Z,0.00
2018-04-12T02:19:07.944Z,0.00
2018-04-12T02:20:07.838Z,0.00
2018-04-12T02:21:07.757Z,0.00
2018-04-12T02:22:07.679Z,0.00
2018-04-12T02:23:07.598Z,0.00
2018-04-12T02:24:07.520Z,0.00
2018-04-12T02:25:07.440Z,0.00
2018-04-12T02:26:07.360Z,0.00
2018-04-12T02:27:07.284Z,0.00
2018-04-12T02:28:07.247Z,0.00
2018-04-12T02:29:07.145Z,0.00
2018-04-12T02:30:07.051Z,0.00
2018-04-12T02:31:06.962Z,0.00
2018-04-12T02:32:06.884Z,0.00
2018-04-12T02:33:06.806Z,0.00
2018-04-12T02:34:06.725Z,0.00
2018-04-12T02:35:06.683Z,0.00
2018-04-12T02:36:06.565Z,0.00
2018-04-12T02:37:06.511Z,0.00
2018-04-12T02:38:06.410Z,0.00
2018-04-12T02:39:06.325Z,0.00
2018-04-12T02:40:06.249Z,0.00
2018-04-12T02:41:06.170Z,0.00
2018-04-12T02:42:06.091Z,0.00
2018-04-12T02:43:06.009Z,0.00
2018-04-12T02:44:05.944Z,0.00
2018-04-12T02:45:05.844Z,0.00
2018-04-12T02:46:05.772Z,0.00
2018-04-12T02:47:05.692Z,0.00
2018-04-12T02:48:05.655Z,0.00
2018-04-12T02:49:05.536Z,0.00
2018-04-12T02:50:05.453Z,0.00
2018-04-12T02:51:05.374Z,0.00
2018-04-12T02:52:05.295Z,0.00
2018-04-12T02:53:05.219Z,0.00
2018-04-12T02:54:05.138Z,0.00
2018-04-12T02:55:05.089Z,0.00
2018-04-12T02:56:04.989Z,0.00
2018-04-12T02:57:04.901Z,0.00
2018-04-12T02:58:04.816Z,0.00
2018-04-12T02:59:04.746Z,0.00
2018-04-12T03:00:04.658Z,0.00
2018-04-12T03:01:04.581Z,0.00
2018-04-12T03:02:04.499Z,0.00
2018-04-12T03:03:04.417Z,0.00
2018-04-12T03:04:04.341Z,0.00
2018-04-12T03:05:04.260Z,0.00
2018-04-12T03:06:04.180Z,0.00
2018-04-12T03:07:04.101Z,0.00
2018-04-12T03:08:04.021Z,0.00
2018-04-12T03:09:03.943Z,0.00
2018-04-12T03:10:03.863Z,0.00
2018-04-12T03:11:03.782Z,0.00
2018-04-12T03:12:03.704Z,0.00
2018-04-12T03:13:03.624Z,0.00
2018-04-12T03:14:03.544Z,0.00
2018-04-12T03:15:03.463Z,0.00
2018-04-12T03:16:03.429Z,0.00
2018-04-12T03:17:03.308Z,0.00
2018-04-12T03:18:03.228Z,0.00
2018-04-12T03:19:03.146Z,0.00
2018-04-12T03:20:03.086Z,0.00
2018-04-12T03:21:02.992Z,0.00
2018-04-12T03:22:02.906Z,0.00
2018-04-12T03:23:02.829Z,0.00
2018-04-12T03:24:02.768Z,0.00
2018-04-12T03:25:02.678Z,0.00
2018-04-12T03:26:02.587Z,0.00
2018-04-12T03:27:02.515Z,0.00
2018-04-12T03:28:02.431Z,0.00
2018-04-12T03:29:02.350Z,0.00
2018-04-12T03:30:02.275Z,0.00
2018-04-12T03:31:02.198Z,0.00
2018-04-12T03:32:02.113Z,0.00
2018-04-12T03:33:02.035Z,0.00
2018-04-12T03:34:01.956Z,0.00
2018-04-12T03:35:01.874Z,0.00
2018-04-12T03:36:01.802Z,0.00
2018-04-12T03:37:01.716Z,0.00
2018-04-12T03:38:01.637Z,0.00
2018-04-12T03:39:01.556Z,0.00
2018-04-12T03:40:01.479Z,0.00
2018-04-12T03:41:01.397Z,0.00
2018-04-12T03:42:01.325Z,0.00
2018-04-12T03:43:01.248Z,0.00
2018-04-12T03:44:01.160Z,0.00
2018-04-12T03:45:01.081Z,0.00
2018-04-12T03:46:01.000Z,0.00
2018-04-12T03:47:00.923Z,0.00
2018-04-12T03:48:00.846Z,0.00
2018-04-12T03:49:00.822Z,0.00
2018-04-12T03:50:00.696Z,0.00
2018-04-12T03:51:00.605Z,0.00
2018-04-12T03:52:00.527Z,0.00
2018-04-12T03:53:00.479Z,0.00
2018-04-12T03:54:00.367Z,0.00
2018-04-12T03:55:00.287Z,0.00
2018-04-12T03:56:00.212Z,0.00
2018-04-12T03:57:00.130Z,0.00
2018-04-12T03:58:00.052Z,0.00
2018-04-12T03:59:00.004Z,0.00
2018-04-12T03:59:59.892Z,0.00
2018-04-12T04:00:59.814Z,0.00
2018-04-12T04:01:59.738Z,0.00
2018-04-12T04:02:59.656Z,0.00
2018-04-12T04:03:59.580Z,0.00
2018-04-12T04:04:59.496Z,0.00
2018-04-12T04:05:59.418Z,0.00
2018-04-12T04:06:59.338Z,0.00
2018-04-12T04:07:59.259Z,0.00
2018-04-12T04:08:59.179Z,0.00
2018-04-12T04:09:59.106Z,0.00
2018-04-12T04:10:59.021Z,0.00
2018-04-12T04:11:58.944Z,0.00
2018-04-12T04:12:58.864Z,0.00
2018-04-12T04:13:58.783Z,0.00
2018-04-12T04:14:58.705Z,0.00
2018-04-12T04:15:58.625Z,0.00
2018-04-12T04:16:58.563Z,0.00
2018-04-12T04:17:58.468Z,4.00
2018-04-12T04:18:58.402Z,4.00
2018-04-12T04:19:58.316Z,0.00
2018-04-12T04:20:58.230Z,4.00
2018-04-12T04:21:58.152Z,4.00
2018-04-12T04:22:58.071Z,4.00
2018-04-12T04:23:57.996Z,8.00
2018-04-12T04:24:57.917Z,4.00
2018-04-12T04:25:57.836Z,8.00
2018-04-12T04:26:57.757Z,8.00
2018-04-12T04:27:57.724Z,8.00
2018-04-12T04:28:57.602Z,16.00
2018-04-12T04:29:57.517Z,16.00
2018-04-12T04:30:57.439Z,16.00
2018-04-12T04:31:57.363Z,20.00
2018-04-12T04:32:57.281Z,24.00
2018-04-12T04:33:57.203Z,28.00
2018-04-12T04:34:57.123Z,28.00
2018-04-12T04:35:57.044Z,36.00
2018-04-12T04:36:56.965Z,36.00
2018-04-12T04:37:56.891Z,40.00
2018-04-12T04:38:56.806Z,48.00
2018-04-12T04:39:56.802Z,52.00
2018-04-12T04:40:56.651Z,60.00
2018-04-12T04:41:56.578Z,68.00
2018-04-12T04:42:56.492Z,72.00
2018-04-12T04:43:56.414Z,84.00
2018-04-12T04:44:56.333Z,92.00
2018-04-12T04:45:56.259Z,104.00
2018-04-12T04:46:56.172Z,112.00
2018-04-12T04:47:56.098Z,124.00
2018-04-12T04:48:56.018Z,140.00
2018-04-12T04:49:55.938Z,152.00
2018-04-12T04:50:55.883Z,172.00
2018-04-12T04:51:55.777Z,188.00
2018-04-12T04:52:55.722Z,204.00
2018-04-12T04:53:55.624Z,224.00
2018-04-12T04:54:55.588Z,248.00
2018-04-12T04:55:55.491Z,268.00
2018-04-12T04:56:55.410Z,292.00
2018-04-12T04:57:55.303Z,316.00
2018-04-12T04:58:55.226Z,348.00
2018-04-12T04:59:55.181Z,380.00
2018-04-12T05:00:55.067Z,404.00
2018-04-12T05:01:54.987Z,416.00
2018-04-12T05:02:54.912Z,436.00
2018-04-12T05:03:54.831Z,452.00
2018-04-12T05:04:54.782Z,472.00
2018-04-12T05:05:54.675Z,500.00
2018-04-12T05:06:54.592Z,520.00
2018-04-12T05:07:54.515Z,548.00
2018-04-12T05:08:54.436Z,572.00
2018-04-12T05:09:54.352Z,592.00
2018-04-12T05:10:54.276Z,608.00
2018-04-12T05:11:54.219Z,632.00
2018-04-12T05:12:54.117Z,640.00
2018-04-12T05:13:54.040Z,648.00
2018-04-12T05:14:53.962Z,640.00
2018-04-12T05:15:53.884Z,644.00
2018-04-12T05:16:53.803Z,664.00
2018-04-12T05:17:53.726Z,684.00
2018-04-12T05:18:53.645Z,696.00
2018-04-12T05:19:53.581Z,712.00
2018-04-12T05:20:53.488Z,716.00
2018-04-12T05:21:53.409Z,716.00
2018-04-12T05:22:53.329Z,716.00
2018-04-12T05:23:53.257Z,704.00
2018-04-12T05:24:53.170Z,700.00
2018-04-12T05:25:53.103Z,704.00
2018-04-12T05:26:53.021Z,704.00
2018-04-12T05:27:52.952Z,712.00
2018-04-12T05:28:52.856Z,712.00
2018-04-12T05:29:52.779Z,716.00
2018-04-12T05:30:52.698Z,720.00
2018-04-12T05:31:52.625Z,728.00
2018-04-12T05:32:52.540Z,740.00
2018-04-12T05:33:52.478Z,736.00
2018-04-12T05:34:52.428Z,740.00
2018-04-12T05:35:52.302Z,752.00
2018-04-12T05:36:52.227Z,772.00
2018-04-12T05:37:52.149Z,796.00
2018-04-12T05:38:52.066Z,824.00
2018-04-12T05:39:51.989Z,860.00
2018-04-12T05:40:51.918Z,900.00
2018-04-12T05:41:51.834Z,944.00
2018-04-12T05:42:51.755Z,1008.00
2018-04-12T05:43:51.676Z,1072.00
2018-04-12T05:44:51.646Z,1128.00
2018-04-12T05:45:51.517Z,1168.00
2018-04-12T05:46:51.436Z,1208.00
2018-04-12T05:47:51.359Z,1248.00
2018-04-12T05:48:51.279Z,1312.00
2018-04-12T05:49:51.206Z,1380.00
2018-04-12T05:50:51.121Z,1440.00
2018-04-12T05:51:51.043Z,1480.00
2018-04-12T05:52:50.985Z,1504.00
2018-04-12T05:53:50.886Z,1516.00
2018-04-12T05:54:50.812Z,1524.00
2018-04-12T05:55:50.729Z,1520.00
2018-04-12T05:56:50.649Z,1504.00
2018-04-12T05:57:50.573Z,1488.00
2018-04-12T05:58:50.494Z,1476.00
2018-04-12T05:59:50.472Z,1476.00
2018-04-12T06:00:50.366Z,1484.00
2018-04-12T06:01:50.259Z,1496.00
2018-04-12T06:02:50.178Z,1508.00
2018-04-12T06:03:50.106Z,1508.00
2018-04-12T06:04:50.020Z,1504.00
2018-04-12T06:05:49.940Z,1484.00
2018-04-12T06:06:49.863Z,1464.00
2018-04-12T06:07:49.788Z,1436.00
2018-04-12T06:08:49.707Z,1412.00
2018-04-12T06:09:49.630Z,1388.00
2018-04-12T06:10:49.548Z,1364.00
2018-04-12T06:11:49.470Z,1344.00
2018-04-12T06:12:49.394Z,1332.00
2018-04-12T06:13:49.316Z,1324.00
2018-04-12T06:14:49.238Z,1312.00
2018-04-12T06:15:49.159Z,1304.00
2018-04-12T06:16:49.075Z,1288.00
2018-04-12T06:17:49.001Z,1272.00
2018-04-12T06:18:48.947Z,1252.00
2018-04-12T06:19:48.845Z,1232.00
2018-04-12T06:20:48.767Z,1220.00
2018-04-12T06:21:48.690Z,1216.00
2018-04-12T06:22:48.611Z,1236.00
2018-04-12T06:23:48.528Z,1232.00
2018-04-12T06:24:48.456Z,1220.00
2018-04-12T06:25:48.419Z,1220.00
2018-04-12T06:26:48.296Z,1204.00
2018-04-12T06:27:48.219Z,1228.00
2018-04-12T06:28:48.148Z,1300.00
2018-04-12T06:29:48.074Z,1356.00
2018-04-12T06:30:47.980Z,1416.00
2018-04-12T06:31:47.960Z,1500.00
2018-04-12T06:32:47.826Z,1572.00
2018-04-12T06:33:47.805Z,1660.00
2018-04-12T06:34:47.673Z,1736.00
2018-04-12T06:35:47.594Z,1824.00
2018-04-12T06:36:47.641Z,1972.00
2018-04-12T06:37:47.436Z,2084.00
2018-04-12T06:38:47.378Z,2140.00
2018-04-12T06:39:47.437Z,2104.00
2018-04-12T06:40:47.197Z,1964.00
2018-04-12T06:41:47.127Z,1772.00
2018-04-12T06:42:47.058Z,1604.00
2018-04-12T06:43:46.967Z,1520.00
2018-04-12T06:44:46.889Z,1524.00
2018-04-12T06:45:46.835Z,1608.00
2018-04-12T06:46:46.800Z,1688.00
2018-04-12T06:47:46.657Z,1732.00
2018-04-12T06:48:46.574Z,1704.00
2018-04-12T06:49:46.544Z,1628.00
2018-04-12T06:50:46.418Z,1572.00
2018-04-12T06:51:46.342Z,1548.00
2018-04-12T06:52:46.264Z,1552.00
2018-04-12T06:53:46.233Z,1564.00
2018-04-12T06:54:46.105Z,1588.00
2018-04-12T06:55:46.026Z,1616.00
2018-04-12T06:56:45.973Z,1672.00
2018-04-12T06:57:45.872Z,1740.00
2018-04-12T06:58:45.806Z,1828.00
2018-04-12T06:59:45.715Z,1932.00
2018-04-12T07:00:45.638Z,2048.00
2018-04-12T07:01:45.560Z,2168.00
2018-04-12T07:02:45.530Z,2288.00
2018-04-12T07:03:45.400Z,2388.00
2018-04-12T07:04:45.327Z,2476.00
2018-04-12T07:05:45.259Z,2536.00
2018-04-12T07:06:45.170Z,2588.00
2018-04-12T07:07:45.094Z,2604.00
2018-04-12T07:08:45.015Z,2592.00
2018-04-12T07:09:44.939Z,2584.00
2018-04-12T07:10:44.859Z,2620.00
2018-04-12T07:11:44.782Z,2704.00
2018-04-12T07:12:44.705Z,2796.00
2018-04-12T07:13:44.634Z,2876.00
2018-04-12T07:14:44.548Z,2976.00
2018-04-12T07:15:44.466Z,3032.00
2018-04-12T07:16:44.392Z,3052.00
2018-04-12T07:17:44.326Z,3064.00
2018-04-12T07:18:44.237Z,3076.00
2018-04-12T07:19:44.158Z,3148.00
2018-04-12T07:20:44.082Z,3308.00
2018-04-12T07:21:43.996Z,3548.00
2018-04-12T07:22:43.927Z,3856.00
2018-04-12T07:23:43.846Z,4220.00
2018-04-12T07:24:43.770Z,4632.00
2018-04-12T07:25:43.696Z,5096.00
2018-04-12T07:26:43.613Z,5544.00
2018-04-12T07:27:43.537Z,5912.00
2018-04-12T07:28:43.472Z,6224.00
2018-04-12T07:29:43.383Z,6480.00
2018-04-12T07:30:43.303Z,6736.00
2018-04-12T07:31:43.228Z,7000.00
2018-04-12T07:32:43.151Z,7156.00
2018-04-12T07:33:43.074Z,7224.00
2018-04-12T07:34:42.997Z,7280.00
2018-04-12T07:35:42.919Z,7300.00
2018-04-12T07:36:42.843Z,7244.00
2018-04-12T07:37:42.764Z,7220.00
2018-04-12T07:38:42.688Z,7212.00
2018-04-12T07:39:42.608Z,7180.00
2018-04-12T07:40:42.534Z,7144.00
2018-04-12T07:41:42.455Z,7116.00
2018-04-12T07:42:42.377Z,7108.00
2018-04-12T07:43:42.315Z,7080.00
2018-04-12T07:44:42.228Z,7052.00
2018-04-12T07:45:42.195Z,7016.00
2018-04-12T07:46:42.070Z,6940.00
2018-04-12T07:47:42.012Z,6952.00
2018-04-12T07:48:41.918Z,6960.00
2018-04-12T07:49:41.863Z,6920.00
2018-04-12T07:50:41.782Z,6820.00
2018-04-12T07:51:41.688Z,6672.00
2018-04-12T07:52:41.610Z,6492.00
2018-04-12T07:53:41.535Z,6304.00
2018-04-12T07:54:41.461Z,6136.00
2018-04-12T07:55:41.430Z,6032.00
2018-04-12T07:56:41.324Z,6004.00
2018-04-12T07:57:41.229Z,6020.00
2018-04-12T07:58:41.153Z,6124.00
2018-04-12T07:59:41.078Z,6264.00
2018-04-12T08:00:40.995Z,6372.00
2018-04-12T08:01:40.925Z,6596.00
2018-04-12T08:02:40.850Z,6928.00
2018-04-12T08:03:40.773Z,7216.00
2018-04-12T08:04:40.697Z,7536.00
2018-04-12T08:05:40.620Z,8032.00
2018-04-12T08:06:40.541Z,9176.00
2018-04-12T08:07:40.466Z,9796.00
2018-04-12T08:08:40.389Z,9764.00
2018-04-12T08:09:40.368Z,9324.00
2018-04-12T08:10:40.236Z,9472.00
2018-04-12T08:11:40.162Z,9480.00
2018-04-12T08:12:40.099Z,9376.00
2018-04-12T08:13:40.047Z,10036.00
2018-04-12T08:14:39.932Z,11760.00
2018-04-12T08:15:39.859Z,11760.00
2018-04-12T08:16:39.791Z,10736.00
2018-04-12T08:17:39.708Z,13280.00
2018-04-12T08:18:39.629Z,18016.00
2018-04-12T08:19:39.599Z,19776.00
2018-04-12T08:20:39.482Z,21056.00
2018-04-12T08:21:39.406Z,24640.00
2018-04-12T08:22:39.330Z,23296.00
2018-04-12T08:23:39.254Z,25984.00
2018-04-12T08:24:39.178Z,20512.00
2018-04-12T08:25:39.198Z,14512.00
2018-04-12T08:26:39.120Z,17248.00
2018-04-12T08:27:38.974Z,18720.00
2018-04-12T08:28:38.937Z,17248.00
2018-04-12T08:29:38.808Z,16244.00
2018-04-12T08:30:38.734Z,13944.00
2018-04-12T08:31:38.658Z,12460.00
2018-04-12T08:32:38.676Z,10948.00
2018-04-12T08:33:38.514Z,9980.00
2018-04-12T08:34:38.452Z,8468.00
2018-04-12T08:35:38.364Z,8108.00
2018-04-12T08:36:38.293Z,7880.00
2018-04-12T08:37:38.220Z,7564.00
2018-04-12T08:38:38.151Z,7320.00
2018-04-12T08:39:38.086Z,7152.00
2018-04-12T08:40:38.003Z,7052.00
2018-04-12T08:41:37.928Z,7040.00
2018-04-12T08:42:37.883Z,7140.00
2018-04-12T08:43:37.784Z,7452.00
2018-04-12T08:44:37.711Z,8880.00
2018-04-12T08:45:37.634Z,11024.00
2018-04-12T08:46:37.562Z,10332.00
2018-04-12T08:47:37.487Z,11152.00
2018-04-12T08:48:37.413Z,11448.00
2018-04-12T08:49:37.341Z,11316.00
2018-04-12T08:50:37.267Z,11140.00
2018-04-12T08:51:37.195Z,10780.00
2018-04-12T08:52:37.183Z,11124.00
2018-04-12T08:53:37.048Z,12096.00
2018-04-12T08:54:37.049Z,13532.00
2018-04-12T08:55:36.900Z,15236.00
2018-04-12T08:56:36.881Z,15980.00
2018-04-12T08:57:36.763Z,17056.00
2018-04-12T08:58:36.683Z,18272.00
2018-04-12T08:59:36.608Z,21312.00
2018-04-12T09:00:36.541Z,23168.00
2018-04-12T09:01:36.464Z,22240.00
2018-04-12T09:02:36.389Z,24192.00
2018-04-12T09:03:36.327Z,23616.00
2018-04-12T09:04:36.245Z,15060.00
2018-04-12T09:05:36.173Z,12868.00
2018-04-12T09:06:36.100Z,13400.00
2018-04-12T09:07:36.030Z,13888.00
2018-04-12T09:08:35.956Z,18528.00
2018-04-12T09:09:35.897Z,28032.00
2018-04-12T09:10:35.811Z,33920.00
2018-04-12T09:11:35.743Z,35904.00
2018-04-12T09:12:35.667Z,34464.00
2018-04-12T09:13:35.596Z,35392.00
2018-04-12T09:14:35.521Z,37184.00
2018-04-12T09:15:35.453Z,27712.00
2018-04-12T09:16:35.380Z,25600.00
2018-04-12T09:17:35.310Z,22560.00
2018-04-12T09:18:35.261Z,25568.00
2018-04-12T09:19:35.173Z,33056.00
2018-04-12T09:20:35.096Z,37632.00
2018-04-12T09:21:35.027Z,45856.00
2018-04-12T09:22:35.028Z,56512.00
2018-04-12T09:23:34.884Z,57408.00
2018-04-12T09:24:34.812Z,58336.00
2018-04-12T09:25:34.743Z,58336.00
2018-04-12T09:26:34.685Z,59488.00
2018-04-12T09:27:34.603Z,60416.00
2018-04-12T09:28:34.533Z,56960.00
2018-04-12T09:29:34.463Z,56352.00
2018-04-12T09:30:34.394Z,56832.00
2018-04-12T09:31:34.327Z,57408.00
2018-04-12T09:32:34.258Z,55968.00
2018-04-12T09:33:34.193Z,53472.00
2018-04-12T09:34:34.123Z,52640.00
2018-04-12T09:35:34.061Z,47008.00
2018-04-12T09:36:33.999Z,43168.00
2018-04-12T09:37:33.923Z,42880.00
2018-04-12T09:38:33.858Z,44192.00
2018-04-12T09:39:33.793Z,40960.00
2018-04-12T09:40:33.764Z,37600.00
2018-04-12T09:41:33.675Z,35520.00
2018-04-12T09:42:33.605Z,33952.00
2018-04-12T09:43:33.530Z,32448.00
2018-04-12T09:44:33.463Z,32896.00
2018-04-12T09:45:33.398Z,34368.00
2018-04-12T09:46:33.334Z,33024.00
2018-04-12T09:47:33.265Z,32736.00
2018-04-12T09:48:33.243Z,29760.00
2018-04-12T09:49:33.136Z,29408.00
2018-04-12T09:50:33.070Z,28928.00
2018-04-12T09:51:33.004Z,29216.00
2018-04-12T09:52:32.937Z,28608.00
2018-04-12T09:53:32.872Z,26592.00
2018-04-12T09:54:32.806Z,26432.00
2018-04-12T09:55:32.746Z,27488.00
2018-04-12T09:56:32.674Z,29152.00
2018-04-12T09:57:32.608Z,31456.00
2018-04-12T09:58:32.540Z,32992.00
2018-04-12T09:59:32.476Z,33056.00
2018-04-12T10:00:32.408Z,30688.00
2018-04-12T10:01:32.340Z,30592.00
2018-04-12T10:02:32.279Z,28096.00
2018-04-12T10:03:32.209Z,29216.00
2018-04-12T10:04:32.141Z,32416.00
2018-04-12T10:05:32.073Z,26368.00
2018-04-12T10:06:32.008Z,25984.00
2018-04-12T10:07:31.941Z,30944.00
2018-04-12T10:08:31.874Z,28544.00
2018-04-12T10:09:31.805Z,23744.00
2018-04-12T10:10:31.738Z,23648.00
2018-04-12T10:11:31.736Z,31392.00
2018-04-12T10:12:31.601Z,27584.00
2018-04-12T10:13:31.535Z,22496.00
2018-04-12T10:14:31.467Z,19872.00
2018-04-12T10:15:31.400Z,18016.00
2018-04-12T10:16:31.333Z,18400.00
2018-04-12T10:17:31.265Z,17664.00
2018-04-12T10:18:31.265Z,17280.00
2018-04-12T10:19:31.137Z,17472.00
2018-04-12T10:20:31.064Z,17088.00
2018-04-12T10:21:30.996Z,22816.00
2018-04-12T10:22:30.923Z,18656.00
2018-04-12T10:23:30.854Z,22112.00
2018-04-12T10:24:30.790Z,25728.00
2018-04-12T10:25:30.763Z,21440.00
2018-04-12T10:26:30.653Z,25920.00
2018-04-12T10:27:30.587Z,31104.00
2018-04-12T10:28:30.572Z,22176.00
2018-04-12T10:29:30.446Z,24064.00
2018-04-12T10:30:30.373Z,19296.00
2018-04-12T10:31:30.307Z,17568.00
2018-04-12T10:32:30.237Z,20032.00
2018-04-12T10:33:30.176Z,26848.00
2018-04-12T10:34:30.100Z,25792.00
2018-04-12T10:35:30.033Z,28096.00
2018-04-12T10:36:29.965Z,23744.00
2018-04-12T10:37:29.897Z,20128.00
2018-04-12T10:38:29.823Z,18464.00
2018-04-12T10:39:29.764Z,17600.00
2018-04-12T10:40:29.698Z,18400.00
2018-04-12T10:41:29.656Z,18272.00
2018-04-12T10:42:29.550Z,18176.00
2018-04-12T10:43:29.482Z,16136.00
2018-04-12T10:44:29.413Z,21568.00
2018-04-12T10:45:29.344Z,21888.00
2018-04-12T10:46:29.274Z,23072.00
2018-04-12T10:47:29.201Z,24352.00
2018-04-12T10:48:29.137Z,24512.00
2018-04-12T10:49:29.070Z,28768.00
2018-04-12T10:50:29.004Z,29856.00
2018-04-12T10:51:28.930Z,28000.00
2018-04-12T10:52:28.863Z,28960.00
2018-04-12T10:53:28.796Z,32640.00
2018-04-12T10:54:28.727Z,36288.00
2018-04-12T10:55:28.666Z,35360.00
2018-04-12T10:56:28.599Z,31680.00
2018-04-12T10:57:28.518Z,23552.00
2018-04-12T10:58:28.480Z,23072.00
2018-04-12T10:59:28.380Z,25984.00
2018-04-12T11:00:28.319Z,30752.00
2018-04-12T11:01:28.245Z,27648.00
2018-04-12T11:02:28.176Z,31072.00
2018-04-12T11:03:28.131Z,29728.00
2018-04-12T11:04:28.045Z,33312.00
2018-04-12T11:05:27.974Z,33120.00
2018-04-12T11:06:27.899Z,34656.00
2018-04-12T11:07:27.838Z,45280.00
2018-04-12T11:08:27.770Z,52096.00
2018-04-12T11:09:27.703Z,38976.00
2018-04-12T11:10:27.632Z,48320.00
2018-04-12T11:11:27.568Z,55968.00
2018-04-12T11:12:27.501Z,44544.00
2018-04-12T11:13:27.433Z,36576.00
2018-04-12T11:14:27.370Z,35232.00
2018-04-12T11:15:27.301Z,29760.00
2018-04-12T11:16:27.234Z,18912.00
2018-04-12T11:17:27.170Z,15364.00
2018-04-12T11:18:27.183Z,18368.00
2018-04-12T11:19:27.036Z,23680.00
2018-04-12T11:20:26.973Z,37248.00
2018-04-12T11:21:26.903Z,35968.00
2018-04-12T11:22:26.839Z,44960.00
2018-04-12T11:23:26.812Z,40992.00
2018-04-12T11:24:26.738Z,41312.00
2018-04-12T11:25:26.643Z,48128.00
2018-04-12T11:26:26.589Z,44896.00
2018-04-12T11:27:26.508Z,52640.00
2018-04-12T11:28:26.449Z,43776.00
2018-04-12T11:29:26.381Z,30848.00
2018-04-12T11:30:26.309Z,25024.00
2018-04-12T11:31:26.260Z,15516.00
2018-04-12T11:32:26.183Z,16316.00
2018-04-12T11:33:26.121Z,23744.00
2018-04-12T11:34:26.067Z,24896.00
2018-04-12T11:35:25.992Z,41440.00
2018-04-12T11:36:25.938Z,37984.00
2018-04-12T11:37:25.873Z,45504.00
2018-04-12T11:38:25.798Z,43424.00
2018-04-12T11:39:25.764Z,36992.00
2018-04-12T11:40:25.679Z,38400.00
2018-04-12T11:41:25.600Z,49888.00
2018-04-12T11:42:25.544Z,53312.00
2018-04-12T11:43:25.475Z,52512.00
2018-04-12T11:44:25.408Z,52928.00
2018-04-12T11:45:25.345Z,30880.00
2018-04-12T11:46:25.290Z,17468.00
2018-04-12T11:47:25.247Z,14536.00
2018-04-12T11:48:25.148Z,20448.00
2018-04-12T11:49:25.086Z,26368.00
2018-04-12T11:50:25.022Z,27200.00
2018-04-12T11:51:25.003Z,35136.00
2018-04-12T11:52:24.896Z,25376.00
2018-04-12T11:53:24.832Z,33472.00
2018-04-12T11:54:24.767Z,36544.00
2018-04-12T11:55:24.733Z,34240.00
2018-04-12T11:56:24.639Z,27360.00
2018-04-12T11:57:24.570Z,16648.00
2018-04-12T11:58:24.507Z,19328.00
2018-04-12T11:59:24.523Z,23520.00
2018-04-12T12:00:24.378Z,31712.00
2018-04-12T12:01:24.322Z,24032.00
2018-04-12T12:02:24.291Z,29344.00
2018-04-12T12:03:24.179Z,29312.00
2018-04-12T12:04:24.119Z,17692.00
2018-04-12T12:05:24.048Z,16032.00
2018-04-12T12:06:23.985Z,15240.00
2018-04-12T12:07:23.917Z,15064.00
2018-04-12T12:08:23.855Z,19488.00
2018-04-12T12:09:23.789Z,34400.00
2018-04-12T12:10:23.721Z,45504.00
2018-04-12T12:11:23.659Z,39648.00
2018-04-12T12:12:23.595Z,30944.00
2018-04-12T12:13:23.524Z,24352.00
2018-04-12T12:14:23.485Z,29984.00
2018-04-12T12:15:23.428Z,35968.00
2018-04-12T12:16:23.329Z,36448.00
2018-04-12T12:17:23.261Z,26848.00
2018-04-12T12:18:23.224Z,16344.00
2018-04-12T12:19:23.129Z,16872.00
2018-04-12T12:20:23.077Z,21376.00
2018-04-12T12:21:22.997Z,29504.00
2018-04-12T12:22:22.931Z,38464.00
2018-04-12T12:23:22.865Z,36864.00
2018-04-12T12:24:22.808Z,35680.00